Time;durP1;ratioP1;P1;durP2;ratioP2;P2;SDS_P1;SDS_P2;PMS_P1;PMS_P2;Temp;Humidity;BMP_temperature;BMP_pressure;BME280_temperature;BME280_humidity;BME280_pressure;Samples;Min_cycle;Max_cycle;Signal;HPM_P1;HPM_P2
2021/06/07 00:01:20;;;;;;;;;6.75;6.75;;;;;20.75;52.66;102005.84;5057693;28;45460;-82
2021/06/07 00:03:47;;;;;;;;;7.25;6.50;;;;;20.71;52.54;102008.38;5058323;28;45372;-81
2021/06/07 00:06:13;;;;;;;;;8.00;7.00;;;;;20.61;52.93;102008.16;5063627;28;45395;-80
2021/06/07 00:08:39;;;;;;;;;9.50;8.50;;;;;20.56;52.71;102008.03;5071009;28;45501;-80
2021/06/07 00:11:05;;;;;;;;;6.75;6.50;;;;;20.52;52.98;102001.81;5067103;28;46087;-76
2021/06/07 00:13:32;;;;;;;;;8.00;8.00;;;;;20.45;53.53;101997.25;5062391;28;45404;-81
2021/06/07 00:15:59;;;;;;;;;7.75;6.00;;;;;20.50;52.99;102000.91;5057370;28;45334;-81
2021/06/07 00:18:25;;;;;;;;;7.75;6.00;;;;;20.53;53.28;101997.44;5056650;28;45890;-81
2021/06/07 00:20:59;;;;;;;;;9.00;9.00;;;;;20.49;52.73;101990.31;5055871;28;45880;-78
2021/06/07 00:23:26;;;;;;;;;6.75;6.50;;;;;20.50;53.41;101992.09;5056002;28;45735;-82
2021/06/07 00:25:53;;;;;;;;;6.25;5.50;;;;;20.46;53.17;101985.88;5055948;28;45368;-81
2021/06/07 00:28:20;;;;;;;;;5.00;5.00;;;;;20.45;53.04;101994.63;5058828;28;45514;-82
2021/06/07 00:30:47;;;;;;;;;7.25;6.75;;;;;20.48;53.31;101991.16;5060498;28;46808;-83
2021/06/07 00:33:12;;;;;;;;;8.00;8.00;;;;;20.46;53.37;101988.53;5056126;28;45323;-83
2021/06/07 00:35:38;;;;;;;;;6.25;5.75;;;;;20.45;53.01;101986.75;5054105;28;45401;-83
2021/06/07 00:38:04;;;;;;;;;8.00;7.75;;;;;20.41;53.22;101993.69;5056619;28;45554;-84
2021/06/07 00:40:30;;;;;;;;;8.50;7.50;;;;;20.38;53.55;101983.06;5056162;28;45456;-82
2021/06/07 00:42:56;;;;;;;;;8.50;7.75;;;;;20.19;53.91;101981.75;5055653;28;45404;-84
2021/06/07 00:45:28;;;;;;;;;8.25;8.25;;;;;20.19;53.80;101988.75;5056143;28;45405;-83
2021/06/07 00:47:57;;;;;;;;;8.00;8.00;;;;;20.11;54.06;101988.56;5054180;28;45491;-83
2021/06/07 00:50:32;;;;;;;;;7.25;7.25;;;;;19.92;54.77;101989.88;5055829;28;45588;-82
2021/06/07 00:53:02;;;;;;;;;8.00;6.75;;;;;19.93;54.53;101982.03;5055418;28;45352;-83
2021/06/07 00:55:32;;;;;;;;;9.25;7.75;;;;;19.87;54.32;101983.59;5056211;28;45429;-82
2021/06/07 00:57:58;;;;;;;;;9.75;8.75;;;;;19.80;54.92;101980.81;5060910;28;45465;-81
2021/06/07 01:00:26;;;;;;;;;7.75;7.75;;;;;19.72;55.02;101982.31;5061460;28;46073;-81
2021/06/07 01:02:52;;;;;;;;;8.50;8.50;;;;;19.56;55.20;101983.66;5064861;28;45429;-81
2021/06/07 01:05:18;;;;;;;;;9.00;8.00;;;;;19.46;55.49;101979.91;5062852;28;45316;-82
2021/06/07 01:07:44;;;;;;;;;11.00;11.00;;;;;19.53;55.56;101978.34;5058537;28;45481;-81
2021/06/07 01:10:10;;;;;;;;;8.25;6.50;;;;;19.51;55.88;101982.66;5059239;28;45778;-81
2021/06/07 01:12:36;;;;;;;;;6.50;6.50;;;;;19.53;55.87;101973.09;5058742;28;45434;-81
2021/06/07 01:15:04;;;;;;;;;9.75;8.25;;;;;19.58;55.27;101978.47;5057712;28;45413;-77
2021/06/07 01:17:30;;;;;;;;;6.25;6.25;;;;;19.59;55.48;101978.50;5059254;28;45610;-78
2021/06/07 01:19:55;;;;;;;;;10.50;8.00;;;;;19.59;55.38;101981.13;5058280;28;46173;-78
2021/06/07 01:22:21;;;;;;;;;11.00;7.50;;;;;19.58;55.47;101979.34;5059635;28;45435;-81
2021/06/07 01:24:47;;;;;;;;;9.00;8.50;;;;;19.46;55.50;101976.38;5062211;28;45413;-83
2021/06/07 01:27:12;;;;;;;;;9.75;9.00;;;;;19.46;55.40;101982.53;5059148;28;45542;-83
2021/06/07 01:29:38;;;;;;;;;7.00;7.00;;;;;19.45;55.91;101967.63;5058400;28;45902;-82
2021/06/07 01:32:05;;;;;;;;;7.50;6.75;;;;;19.49;55.79;101966.84;5064031;28;45659;-82
2021/06/07 01:34:32;;;;;;;;;7.00;6.00;;;;;19.54;55.78;101974.88;5063215;28;45420;-82
2021/06/07 01:36:58;;;;;;;;;9.25;8.00;;;;;19.54;55.57;101973.97;5058710;28;45321;-82
2021/06/07 01:39:27;;;;;;;;;10.75;7.00;;;;;19.55;55.63;101971.38;5059532;28;45531;-81
2021/06/07 01:41:54;;;;;;;;;7.00;7.00;;;;;19.55;55.46;101976.63;5059310;28;45361;-78
2021/06/07 01:44:20;;;;;;;;;7.75;7.75;;;;;19.57;55.83;101980.19;5058762;28;45792;-79
2021/06/07 01:46:45;;;;;;;;;7.50;6.75;;;;;19.55;55.58;101976.63;5058400;28;45633;-79
2021/06/07 01:49:11;;;;;;;;;7.00;7.00;;;;;19.52;55.94;101975.66;5063942;28;46253;-82
2021/06/07 01:51:37;;;;;;;;;8.50;7.00;;;;;19.37;55.66;101970.88;5062599;28;45247;-81
2021/06/07 01:54:03;;;;;;;;;8.00;8.00;;;;;19.33;55.77;101981.28;5059785;28;45216;-83
2021/06/07 01:56:29;;;;;;;;;8.00;7.50;;;;;19.29;56.02;101979.47;5058722;28;45255;-84
2021/06/07 01:58:54;;;;;;;;;6.75;6.50;;;;;19.28;56.30;101972.44;5058488;28;46547;-84
2021/06/07 02:01:21;;;;;;;;;15.25;11.75;;;;;19.28;56.39;101980.31;5058449;28;45248;-82
2021/06/07 02:03:48;;;;;;;;;10.25;8.50;;;;;19.19;56.55;101966.94;5058428;28;45433;-84
2021/06/07 02:06:19;;;;;;;;;8.75;7.50;;;;;19.17;56.73;101982.63;5063220;28;45392;-83
2021/06/07 02:08:45;;;;;;;;;8.75;8.75;;;;;19.17;56.55;101968.63;5062569;28;45301;-83
2021/06/07 02:11:19;;;;;;;;;8.75;8.50;;;;;19.20;56.70;101979.22;5059756;28;45339;-83
2021/06/07 02:13:51;;;;;;;;;6.75;6.25;;;;;19.19;56.66;101985.31;5057933;28;45759;-84
2021/06/07 02:16:32;;;;;;;;;10.00;10.00;;;;;19.21;56.69;101983.63;5058237;28;45374;-84
2021/06/07 02:18:59;;;;;;;;;11.00;8.75;;;;;19.18;57.26;101980.91;5056854;28;46035;-84
2021/06/07 02:21:26;;;;;;;;;10.00;9.25;;;;;19.07;57.29;101987.56;5058329;27;45942;-85
2021/06/07 02:23:53;;;;;;;;;13.00;11.75;;;;;19.11;56.88;101981.59;5058445;28;45385;-84
2021/06/07 02:26:19;;;;;;;;;12.00;9.75;;;;;19.04;57.26;101975.25;5056662;28;45359;-84
2021/06/07 02:29:00;;;;;;;;;11.00;9.25;;;;;19.03;57.29;101976.97;5057577;28;45316;-84
2021/06/07 02:31:27;;;;;;;;;10.50;10.50;;;;;19.00;57.69;101976.91;5058894;28;45465;-85
2021/06/07 02:33:54;;;;;;;;;10.75;9.50;;;;;19.00;57.17;101976.91;5059660;28;45418;-84
2021/06/07 02:36:22;;;;;;;;;11.00;9.25;;;;;18.95;57.63;101975.88;5062551;28;45540;-84
2021/06/07 02:38:47;;;;;;;;;9.00;9.00;;;;;19.00;57.55;101987.41;5062733;28;45430;-82
2021/06/07 02:41:13;;;;;;;;;11.75;8.25;;;;;18.99;57.63;101976.84;5076788;28;45287;-84
2021/06/07 02:43:39;;;;;;;;;13.75;10.00;;;;;19.08;56.89;101990.22;5064176;28;45315;-83
2021/06/07 02:46:05;;;;;;;;;11.25;11.00;;;;;19.12;56.97;101986.88;5058247;28;45483;-80
2021/06/07 02:48:31;;;;;;;;;10.50;10.00;;;;;19.14;57.59;101984.25;5064717;28;45538;-84
2021/06/07 02:50:57;;;;;;;;;11.00;9.75;;;;;19.13;56.91;101982.47;5059689;28;45741;-84
2021/06/07 02:53:23;;;;;;;;;13.50;12.25;;;;;19.14;57.42;101987.81;5057924;28;45328;-84
2021/06/07 02:55:51;;;;;;;;;8.75;8.75;;;;;19.13;56.89;101988.66;5071283;28;45313;-83
2021/06/07 02:58:20;;;;;;;;;10.25;10.00;;;;;19.18;57.31;101987.03;5067823;28;46144;-85
2021/06/07 03:00:51;;;;;;;;;11.50;11.50;;;;;19.18;56.91;101986.16;5058842;28;45447;-84
2021/06/07 03:03:18;;;;;;;;;15.25;10.50;;;;;19.22;56.98;101990.63;5058546;28;45495;-84
2021/06/07 03:05:45;;;;;;;;;12.00;12.00;;;;;19.20;56.33;101987.09;5061274;28;45392;-83
2021/06/07 03:08:14;;;;;;;;;15.25;12.50;;;;;19.17;56.78;101993.13;5060641;28;46129;-81
2021/06/07 03:10:42;;;;;;;;;13.25;12.25;;;;;19.18;56.99;101994.03;5059590;28;45711;-83
2021/06/07 03:13:07;;;;;;;;;11.00;11.00;;;;;19.14;57.17;101989.53;5057867;28;45283;-84
2021/06/07 03:15:34;;;;;;;;;7.50;7.50;;;;;19.15;56.27;101981.72;5058803;28;45727;-83
2021/06/07 03:17:59;;;;;;;;;9.25;6.00;;;;;19.13;56.23;101986.03;5059697;28;45469;-84
2021/06/07 03:20:29;;;;;;;;;6.00;6.00;;;;;19.13;56.07;101985.13;5064006;28;44738;-83
2021/06/07 03:22:58;;;;;;;;;8.25;7.25;;;;;19.11;56.07;101981.59;5063786;28;45348;-84
2021/06/07 03:25:25;;;;;;;;;9.00;7.00;;;;;19.12;55.98;101986.88;5069566;28;45342;-83
2021/06/07 03:27:52;;;;;;;;;6.75;6.75;;;;;19.12;55.78;101986.88;5067900;28;46235;-84
2021/06/07 03:30:18;;;;;;;;;7.25;7.25;;;;;19.12;55.97;101985.97;5063332;28;45365;-84
2021/06/07 03:32:45;;;;;;;;;11.00;8.25;;;;;19.00;55.56;101974.28;5063462;28;45279;-83
2021/06/07 03:35:13;;;;;;;;;10.75;9.00;;;;;18.95;55.68;101985.50;5056703;28;45540;-83
2021/06/07 03:37:40;;;;;;;;;9.75;7.00;;;;;18.92;55.96;101982.75;5055616;28;46417;-83
2021/06/07 03:40:09;;;;;;;;;14.25;10.50;;;;;18.95;55.88;101981.13;5063720;28;45752;-83
2021/06/07 03:42:36;;;;;;;;;10.50;7.50;;;;;18.95;55.91;101982.88;5057029;28;45383;-81
2021/06/07 03:45:02;;;;;;;;;9.25;9.25;;;;;18.85;55.96;101976.41;5057509;28;45506;-80
2021/06/07 03:47:29;;;;;;;;;8.50;6.50;;;;;18.89;56.38;101978.31;5057007;28;45904;-84
2021/06/07 03:49:54;;;;;;;;;10.00;8.00;;;;;18.91;56.09;101975.72;5057441;28;45868;-85
2021/06/07 03:52:20;;;;;;;;;13.25;11.75;;;;;18.84;56.43;101967.66;5056819;28;45318;-84
2021/06/07 03:54:45;;;;;;;;;11.25;9.50;;;;;18.83;56.39;101967.63;5055080;28;45603;-84
2021/06/07 03:57:11;;;;;;;;;9.75;8.25;;;;;18.81;56.25;101972.81;5054975;28;45434;-83
2021/06/07 03:59:36;;;;;;;;;11.75;10.00;;;;;18.85;56.70;101971.19;5056212;28;45342;-83
2021/06/07 04:02:04;;;;;;;;;12.25;12.25;;;;;18.86;56.31;101978.22;5055510;28;45345;-82
2021/06/07 04:04:30;;;;;;;;;13.00;10.00;;;;;18.87;56.57;101982.63;5056886;27;45255;-83
2021/06/07 04:06:55;;;;;;;;;9.50;9.50;;;;;18.84;56.43;101978.13;5055786;28;46159;-83
2021/06/07 04:09:22;;;;;;;;;11.50;9.00;;;;;18.87;56.38;101974.75;5056412;28;45346;-78
2021/06/07 04:11:49;;;;;;;;;9.50;7.50;;;;;18.86;56.30;101970.34;5056635;28;45397;-81
2021/06/07 04:14:15;;;;;;;;;8.25;8.25;;;;;18.91;56.10;101965.22;5056584;28;45445;-78
2021/06/07 04:16:40;;;;;;;;;11.75;9.50;;;;;18.95;56.26;101969.75;5055151;28;46285;-78
2021/06/07 04:19:06;;;;;;;;;11.25;11.00;;;;;18.88;55.98;101966.03;5056292;28;45398;-81
2021/06/07 04:21:32;;;;;;;;;7.00;6.75;;;;;18.91;55.72;101966.09;5056094;28;45517;-78
2021/06/07 04:23:57;;;;;;;;;7.75;7.75;;;;;18.83;55.74;101963.28;5055731;28;45566;-78
2021/06/07 04:26:23;;;;;;;;;11.50;8.50;;;;;18.90;55.64;101966.94;5055827;28;45748;-78
2021/06/07 04:28:48;;;;;;;;;12.00;8.75;;;;;18.91;55.39;101965.22;5054297;28;45542;-84
2021/06/07 04:31:14;;;;;;;;;9.25;8.25;;;;;18.92;55.37;101972.25;5056800;28;45427;-86
2021/06/07 04:33:40;;;;;;;;;8.00;7.75;;;;;18.90;55.49;101969.56;5057678;28;45472;-83
2021/06/07 04:36:05;;;;;;;;;11.25;9.50;;;;;18.87;55.56;101967.75;5056239;28;45404;-83
2021/06/07 04:38:31;;;;;;;;;11.00;7.50;;;;;18.95;55.21;101969.75;5056325;28;45223;-86
2021/06/07 04:40:57;;;;;;;;;12.00;9.50;;;;;18.94;55.60;101973.22;5061005;28;45365;-84
2021/06/07 04:43:22;;;;;;;;;8.75;8.50;;;;;18.95;54.98;101969.75;5066459;28;45406;-83
2021/06/07 04:45:48;;;;;;;;;12.25;11.75;;;;;18.94;54.92;101970.59;5058140;28;46796;-82
2021/06/07 04:48:14;;;;;;;;;9.25;8.75;;;;;18.94;54.99;101975.84;5059395;28;45310;-81
2021/06/07 04:50:41;;;;;;;;;8.75;8.25;;;;;18.97;54.60;101973.28;5059101;28;45336;-81
2021/06/07 04:53:09;;;;;;;;;10.25;10.25;;;;;18.94;55.15;101967.97;5058085;28;45370;-83
2021/06/07 04:55:44;;;;;;;;;13.00;11.00;;;;;18.99;54.52;101971.59;5059513;28;46138;-81
2021/06/07 04:58:23;;;;;;;;;12.25;11.75;;;;;18.98;54.52;101975.06;5058134;28;45792;-85
2021/06/07 05:00:51;;;;;;;;;13.75;11.25;;;;;18.97;54.16;101968.94;5059494;28;45357;-87
2021/06/07 05:03:19;;;;;;;;;14.00;12.25;;;;;18.98;54.68;101967.19;5060311;28;45445;-85
2021/06/07 05:05:46;;;;;;;;;10.50;10.25;;;;;19.02;54.31;101980.44;5074716;27;47660;-86
2021/06/07 05:08:12;;;;;;;;;8.00;8.00;;;;;19.02;54.36;101971.69;5060032;28;45729;-87
2021/06/07 05:10:37;;;;;;;;;12.25;11.75;;;;;19.08;53.99;101977.09;5063321;28;45418;-83
2021/06/07 05:13:03;;;;;;;;;16.00;12.00;;;;;19.06;54.00;101973.53;5067238;28;45640;-87
2021/06/07 05:15:30;;;;;;;;;12.25;12.25;;;;;19.06;54.38;101970.91;5068170;28;45370;-87
2021/06/07 05:17:55;;;;;;;;;10.75;10.75;;;;;19.04;54.03;101967.38;5059488;28;45842;-87
2021/06/07 05:20:27;;;;;;;;;13.25;12.00;;;;;19.01;53.87;101973.41;5057428;28;45399;-85
2021/06/07 05:22:54;;;;;;;;;12.25;11.25;;;;;18.98;53.85;101978.59;5058047;28;45852;-87
2021/06/07 05:25:22;;;;;;;;;13.75;12.75;;;;;18.91;54.36;101962.59;5059829;28;46171;-87
2021/06/07 05:27:50;;;;;;;;;13.50;11.75;;;;;18.92;54.35;101967.00;5058326;28;45332;-84
2021/06/07 05:30:17;;;;;;;;;15.00;12.25;;;;;18.93;53.90;101969.69;5059037;28;45264;-80
2021/06/07 05:32:42;;;;;;;;;14.50;12.00;;;;;18.94;54.19;101966.22;5062258;28;45565;-80
2021/06/07 05:35:10;;;;;;;;;10.75;10.75;;;;;19.02;54.05;101979.56;5059818;28;45366;-80
2021/06/07 05:37:36;;;;;;;;;14.75;10.50;;;;;19.00;54.02;101976.00;5058164;28;45398;-79
2021/06/07 05:40:04;;;;;;;;;13.25;12.75;;;;;19.02;53.75;101969.94;5058725;28;45499;-79
2021/06/07 05:42:30;;;;;;;;;13.00;12.75;;;;;19.05;53.68;101973.50;5058637;28;45468;-80
2021/06/07 05:44:56;;;;;;;;;13.50;11.75;;;;;19.04;53.99;101980.50;5058140;28;46052;-80
2021/06/07 05:47:21;;;;;;;;;13.75;10.50;;;;;19.06;53.60;101985.78;5057456;28;45570;-79
2021/06/07 05:49:47;;;;;;;;;11.00;11.00;;;;;19.05;53.48;101987.53;5057719;28;45527;-77
2021/06/07 05:52:13;;;;;;;;;14.50;12.75;;;;;19.10;53.56;101980.66;5057819;28;45579;-81
2021/06/07 05:54:40;;;;;;;;;11.00;11.00;;;;;19.12;53.56;101980.69;5056948;28;46199;-78
2021/06/07 05:57:07;;;;;;;;;11.00;10.75;;;;;19.16;53.15;101982.59;5056686;27;45440;-78
2021/06/07 05:59:36;;;;;;;;;11.00;10.75;;;;;19.19;53.14;101987.94;5057699;28;45528;-78
2021/06/07 06:02:06;;;;;;;;;10.25;8.75;;;;;19.25;52.94;101987.22;5057876;28;45236;-78
2021/06/07 06:04:34;;;;;;;;;10.00;8.50;;;;;19.27;52.41;101990.78;5057997;28;46163;-83
2021/06/07 06:07:01;;;;;;;;;10.75;9.00;;;;;19.26;52.54;101986.38;5059050;28;45870;-84
2021/06/07 06:09:27;;;;;;;;;13.00;12.25;;;;;19.26;52.26;101979.38;5058163;28;45508;-86
2021/06/07 06:11:53;;;;;;;;;12.50;9.50;;;;;19.34;52.30;101990.09;5057402;28;47081;-87
2021/06/07 06:14:19;;;;;;;;;12.00;10.75;;;;;19.35;52.42;101991.88;5072785;28;47913;-87
2021/06/07 06:16:45;;;;;;;;;12.75;11.00;;;;;19.30;52.53;101972.44;5051993;28;45853;-86
2021/06/07 06:19:11;;;;;;;;;11.50;10.25;;;;;19.35;52.18;101984.00;5062813;28;45446;-89
2021/06/07 06:21:39;;;;;;;;;13.25;13.25;;;;;19.45;51.66;101993.91;5062484;28;45165;-90
2021/06/07 06:24:07;;;;;;;;;12.75;11.25;;;;;19.40;51.46;101986.75;5060435;28;45657;-87
2021/06/07 06:26:33;;;;;;;;;11.00;8.75;;;;;19.30;51.79;101993.47;5059701;28;45356;-87
2021/06/07 06:28:58;;;;;;;;;12.00;11.00;;;;;19.35;51.91;101986.63;5060037;28;45454;-79
2021/06/07 06:31:24;;;;;;;;;11.75;11.00;;;;;19.44;51.56;101992.13;5060452;28;45473;-83
2021/06/07 06:33:50;;;;;;;;;8.50;7.75;;;;;19.43;51.02;101985.09;5064155;28;45418;-82
2021/06/07 06:36:16;;;;;;;;;12.50;11.50;;;;;19.52;50.39;101994.03;5056222;28;45401;-81
2021/06/07 06:38:41;;;;;;;;;12.25;11.50;;;;;19.52;50.58;101994.94;5057159;28;45429;-82
2021/06/07 06:41:07;;;;;;;;;14.50;14.25;;;;;19.49;49.75;101993.09;5057304;28;45322;-82
2021/06/07 06:43:33;;;;;;;;;13.25;13.00;;;;;19.50;50.07;101999.28;5056297;28;46268;-81
2021/06/07 06:46:00;;;;;;;;;18.50;13.25;;;;;19.54;50.07;101995.91;5057000;28;45315;-79
2021/06/07 06:48:26;;;;;;;;;19.00;13.75;;;;;19.51;49.07;101994.91;5055112;28;45473;-80
2021/06/07 06:50:52;;;;;;;;;13.50;13.00;;;;;19.59;49.31;101994.25;5054899;28;45496;-82
2021/06/07 06:53:19;;;;;;;;;15.00;12.25;;;;;19.61;49.09;101991.66;5056752;28;45504;-83
2021/06/07 06:55:47;;;;;;;;;10.25;10.00;;;;;19.63;49.17;101989.97;5058654;28;45391;-84
2021/06/07 06:58:13;;;;;;;;;12.00;10.00;;;;;19.67;48.57;101978.69;5059457;28;45475;-84
2021/06/07 07:00:39;;;;;;;;;12.50;11.25;;;;;19.70;48.14;101985.75;5061374;28;45284;-84
2021/06/07 07:03:11;;;;;;;;;15.50;12.50;;;;;19.72;48.60;101987.56;5056394;28;46982;-82
2021/06/07 07:05:38;;;;;;;;;13.75;10.50;;;;;19.81;48.06;101986.94;5054070;28;45465;-84
2021/06/07 07:08:05;;;;;;;;;10.25;9.50;;;;;19.83;48.33;101995.75;5057558;28;45438;-84
2021/06/07 07:10:32;;;;;;;;;13.75;11.50;;;;;19.78;48.41;101978.97;5057642;28;45352;-85
2021/06/07 07:12:57;;;;;;;;;15.00;12.00;;;;;19.89;48.68;101984.53;5060482;28;45603;-84
2021/06/07 07:15:23;;;;;;;;;14.50;10.00;;;;;19.89;48.35;101980.16;5061217;28;45565;-83
2021/06/07 07:17:49;;;;;;;;;14.25;11.75;;;;;19.84;48.78;101973.88;5059172;28;45302;-86
2021/06/07 07:20:15;;;;;;;;;17.75;12.75;;;;;19.93;48.49;101989.00;5062043;28;45913;-83
2021/06/07 07:22:42;;;;;;;;;12.00;12.00;;;;;19.97;48.58;101993.50;5061120;27;47046;-87
2021/06/07 07:25:10;;;;;;;;;9.00;8.25;;;;;19.91;48.25;101985.47;5053222;28;45397;-83
2021/06/07 07:27:37;;;;;;;;;12.50;11.00;;;;;19.93;48.34;101978.50;5054592;28;45268;-81
2021/06/07 07:30:09;;;;;;;;;10.75;9.25;;;;;20.01;48.21;101976.97;5069798;28;45409;-89
2021/06/07 07:32:40;;;;;;;;;12.00;10.75;;;;;20.07;48.20;101982.34;5062289;28;47260;-88
2021/06/07 07:35:06;;;;;;;;;15.00;10.25;;;;;20.00;47.79;101990.03;5062970;28;45136;-89
2021/06/07 07:37:33;;;;;;;;;9.75;9.00;;;;;19.92;47.97;101968.84;5061064;28;45359;-89
2021/06/07 07:40:00;;;;;;;;;12.50;11.50;;;;;19.99;48.61;101973.41;5063291;28;45343;-89
2021/06/07 07:42:25;;;;;;;;;13.25;11.75;;;;;20.05;48.54;101988.44;5061532;28;46831;-83
2021/06/07 07:44:51;;;;;;;;;12.25;11.50;;;;;20.09;48.53;101995.53;5056658;28;45225;-85
2021/06/07 07:47:18;;;;;;;;;12.50;11.75;;;;;20.06;48.45;101984.97;5057402;28;45249;-84
2021/06/07 07:49:45;;;;;;;;;11.50;11.50;;;;;20.03;48.62;101980.50;5059946;28;45511;-84
2021/06/07 07:52:11;;;;;;;;;10.50;9.00;;;;;20.12;48.11;101987.72;5065440;28;45505;-84
2021/06/07 07:54:37;;;;;;;;;11.75;11.25;;;;;20.14;48.19;101982.53;5064285;28;45020;-83
2021/06/07 07:57:06;;;;;;;;;10.25;10.25;;;;;20.16;48.67;101989.59;5063424;28;45345;-87
2021/06/07 07:59:33;;;;;;;;;15.25;13.25;;;;;20.12;48.29;101973.69;5056399;28;45169;-84
2021/06/07 08:02:00;;;;;;;;;14.25;11.50;;;;;20.15;48.71;101979.91;5050065;28;47200;-85
2021/06/07 08:04:27;;;;;;;;;11.25;9.25;;;;;20.24;48.46;101982.75;5052957;28;45748;-87
2021/06/07 08:06:52;;;;;;;;;11.50;10.75;;;;;20.19;49.03;101971.22;5073742;28;44818;-82
2021/06/07 08:09:18;;;;;;;;;11.25;10.50;;;;;20.24;48.81;101976.63;5070977;28;45335;-83
2021/06/07 08:11:44;;;;;;;;;24.25;22.50;;;;;20.18;49.03;101968.56;5056724;28;45394;-83
2021/06/07 08:14:09;;;;;;;;;14.00;12.25;;;;;20.32;49.24;101987.31;5056628;28;45323;-81
2021/06/07 08:16:35;;;;;;;;;15.75;10.00;;;;;20.22;49.30;101965.19;5055912;28;45256;-83
2021/06/07 08:19:01;;;;;;;;;12.50;12.50;;;;;20.23;48.85;101964.34;5057060;28;45313;-88
2021/06/07 08:21:26;;;;;;;;;13.75;10.50;;;;;20.15;49.38;101960.59;5058134;28;45413;-81
2021/06/07 08:23:52;;;;;;;;;8.50;8.50;;;;;20.23;49.03;101962.56;5061991;28;45252;-84
2021/06/07 08:26:18;;;;;;;;;11.00;10.25;;;;;20.43;48.92;101985.81;5061229;28;45359;-82
2021/06/07 08:28:43;;;;;;;;;8.00;8.00;;;;;20.42;49.07;101970.88;5063845;28;45310;-81
2021/06/07 08:31:09;;;;;;;;;12.25;10.75;;;;;20.46;48.83;101983.25;5059973;28;47787;-80
2021/06/07 08:33:36;;;;;;;;;13.25;11.50;;;;;20.50;48.61;101984.22;5058009;28;45432;-80
2021/06/07 08:36:04;;;;;;;;;12.50;10.75;;;;;20.45;49.05;101983.22;5056237;28;45401;-82
2021/06/07 08:38:29;;;;;;;;;10.25;9.00;;;;;20.38;48.63;101977.81;5056516;28;45181;-81
2021/06/07 08:40:55;;;;;;;;;14.00;11.50;;;;;20.48;48.76;101981.56;5055990;28;45515;-83
2021/06/07 08:43:23;;;;;;;;;13.75;12.00;;;;;20.47;48.99;101970.97;5056687;28;45256;-84
2021/06/07 08:45:49;;;;;;;;;13.00;11.25;;;;;20.55;49.40;101982.59;5057858;28;45288;-82
2021/06/07 08:48:15;;;;;;;;;10.25;10.25;;;;;20.54;49.25;101989.56;5058000;28;45839;-84
2021/06/07 08:50:41;;;;;;;;;12.00;9.75;;;;;20.56;48.75;101973.84;5055463;28;47880;-85
2021/06/07 08:53:07;;;;;;;;;9.00;9.00;;;;;20.66;49.06;101982.81;5061980;28;45060;-83
2021/06/07 08:55:34;;;;;;;;;10.00;8.50;;;;;20.55;49.12;101951.88;5065983;28;45264;-82
2021/06/07 08:58:04;;;;;;;;;10.50;8.75;;;;;20.68;48.96;101981.97;5065479;28;45261;-83
2021/06/07 09:00:32;;;;;;;;;9.50;9.50;;;;;20.60;48.55;101951.97;5065201;28;46164;-83
2021/06/07 09:03:06;;;;;;;;;8.75;8.00;;;;;20.65;48.71;101957.34;5075970;28;44940;-83
2021/06/07 09:05:32;;;;;;;;;11.50;10.50;;;;;20.83;48.89;101975.31;5079657;28;44748;-83
2021/06/07 09:08:01;;;;;;;;;10.50;7.50;;;;;20.69;48.55;101964.47;5076740;28;44789;-84
2021/06/07 09:10:31;;;;;;;;;9.25;9.00;;;;;20.66;48.44;101962.66;5080903;28;46954;-85
2021/06/07 09:13:00;;;;;;;;;12.00;9.00;;;;;20.87;47.70;101982.41;5079596;28;45315;-83
2021/06/07 09:15:39;;;;;;;;;11.00;8.75;;;;;20.94;48.06;101976.41;5070950;28;45275;-88
2021/06/07 09:18:08;;;;;;;;;9.75;8.75;;;;;20.97;47.62;101980.84;5060522;28;45374;-83
2021/06/07 09:20:35;;;;;;;;;8.00;8.00;;;;;20.95;47.80;101983.47;5059755;28;47106;-84
2021/06/07 09:23:06;;;;;;;;;8.75;8.75;;;;;20.89;47.42;101972.81;5062276;28;45310;-83
2021/06/07 09:25:37;;;;;;;;;7.00;7.00;;;;;20.99;47.65;101972.16;5063813;28;45442;-84
2021/06/07 09:28:22;;;;;;;;;14.75;14.75;;;;;21.08;47.31;101962.66;5065883;28;45572;-85
2021/06/07 09:30:52;;;;;;;;;10.00;10.00;;;;;21.07;46.85;101961.75;5061488;28;46888;-86
2021/06/07 09:33:39;;;;;;;;;7.50;7.25;;;;;21.13;46.89;101975.06;5062215;28;45750;-90
2021/06/07 09:36:23;;;;;;;;;8.25;8.25;;;;;21.11;46.81;101973.25;5060412;28;45215;-86
2021/06/07 09:39:21;;;;;;;;;9.00;7.75;;;;;21.21;45.89;101983.09;5059820;28;45440;-86
2021/06/07 09:41:56;;;;;;;;;7.50;7.50;;;;;21.28;46.11;101978.81;5062363;28;46747;-90
2021/06/07 09:44:33;;;;;;;;;13.25;9.00;;;;;21.22;45.71;101955.00;5065618;28;44983;-86
2021/06/07 09:47:22;;;;;;;;;7.75;7.00;;;;;21.27;45.49;101987.63;5063847;28;45469;-90
2021/06/07 09:50:03;;;;;;;;;7.50;7.00;;;;;21.35;45.05;101978.09;5061739;28;45311;-84
2021/06/07 09:52:32;;;;;;;;;8.25;7.00;;;;;21.42;44.87;101985.25;5062028;28;46355;-88
2021/06/07 09:55:17;;;;;;;;;7.00;6.25;;;;;21.36;44.72;101966.69;5061619;28;45632;-89
2021/06/07 09:57:48;;;;;;;;;6.75;6.00;;;;;21.54;44.78;101981.06;5067161;28;45355;-84
2021/06/07 10:00:31;;;;;;;;;9.75;6.25;;;;;21.42;44.24;101960.66;5069359;28;45331;-85
2021/06/07 10:02:57;;;;;;;;;5.00;5.00;;;;;21.41;44.09;101980.84;5071026;28;45218;-84
2021/06/07 10:05:35;;;;;;;;;7.00;5.50;;;;;21.47;43.07;101970.44;5066252;28;45327;-84
2021/06/07 10:08:01;;;;;;;;;5.75;4.75;;;;;21.47;43.32;101956.34;5067053;28;45243;-85
2021/06/07 10:10:27;;;;;;;;;8.50;7.75;;;;;21.50;42.69;101953.78;5059191;28;45449;-84
2021/06/07 10:13:02;;;;;;;;;4.00;4.00;;;;;21.65;41.56;101956.69;5058326;28;46831;-84
2021/06/07 10:15:39;;;;;;;;;4.50;4.50;;;;;21.78;42.34;101971.00;5061327;28;45695;-83
2021/06/07 10:18:11;;;;;;;;;5.00;5.00;;;;;21.60;41.88;101953.09;5061449;28;45355;-86
2021/06/07 10:20:51;;;;;;;;;5.75;5.75;;;;;21.53;40.06;101967.00;5060468;28;45326;-85
2021/06/07 10:23:26;;;;;;;;;3.00;3.00;;;;;21.53;40.47;101960.84;5059929;28;46694;-83
2021/06/07 10:25:55;;;;;;;;;5.00;5.00;;;;;21.62;39.91;101951.41;5057789;28;45678;-83
2021/06/07 10:28:47;;;;;;;;;5.00;5.00;;;;;21.85;39.64;101958.81;5062160;28;45470;-89
2021/06/07 10:31:18;;;;;;;;;5.75;5.75;;;;;21.93;39.59;101958.91;5076033;28;45460;-84
2021/06/07 10:34:07;;;;;;;;;4.50;4.50;;;;;22.00;39.85;101957.25;5079790;28;45242;-86
2021/06/07 10:36:45;;;;;;;;;5.75;5.75;;;;;22.08;39.67;101964.44;5067941;28;45393;-83
2021/06/07 10:39:23;;;;;;;;;6.50;5.00;;;;;22.14;38.68;101961.00;5067945;28;45355;-84
2021/06/07 10:41:59;;;;;;;;;5.00;5.00;;;;;22.25;38.75;101961.16;5071812;28;45389;-86
2021/06/07 10:44:41;;;;;;;;;4.25;4.25;;;;;22.31;38.70;101957.72;5079779;28;45618;-86
2021/06/07 10:47:41;;;;;;;;;4.00;4.00;;;;;22.27;37.00;101951.50;5056033;28;45655;-86
2021/06/07 10:50:19;;;;;;;;;4.25;4.25;;;;;22.33;36.85;101951.63;5072345;28;45316;-90
2021/06/07 10:52:53;;;;;;;;;4.25;4.25;;;;;22.34;37.64;101939.28;5067578;28;45351;-85
2021/06/07 10:55:23;;;;;;;;;4.00;4.00;;;;;22.35;37.45;101928.75;5068224;28;45399;-83
2021/06/07 10:58:12;;;;;;;;;5.50;4.75;;;;;22.40;37.26;101936.75;5071252;28;45248;-82
2021/06/07 11:00:42;;;;;;;;;7.00;7.00;;;;;22.45;37.63;101934.22;5070138;28;44718;-80
2021/06/07 11:03:18;;;;;;;;;4.75;4.75;;;;;22.54;37.49;101958.97;5074271;28;45344;-83
2021/06/07 11:05:45;;;;;;;;;5.75;5.75;;;;;22.52;37.31;101938.69;5072702;28;45489;-88
2021/06/07 11:08:17;;;;;;;;;6.00;5.00;;;;;22.33;37.50;101909.41;5069143;28;45219;-83
2021/06/07 11:10:44;;;;;;;;;4.75;4.75;;;;;22.62;37.53;101950.28;5071267;28;45266;-82
2021/06/07 11:13:16;;;;;;;;;4.50;4.50;;;;;22.70;37.43;101953.91;5067050;28;45229;-85
2021/06/07 11:15:55;;;;;;;;;4.50;4.50;;;;;22.79;37.66;101945.19;5050608;28;47861;-85
2021/06/07 11:18:32;;;;;;;;;6.75;6.00;;;;;22.79;37.92;101945.19;5064756;28;45265;-89
2021/06/07 11:20:59;;;;;;;;;5.25;5.25;;;;;22.79;37.71;101943.44;5063861;28;45333;-85
2021/06/07 11:23:42;;;;;;;;;8.00;8.00;;;;;22.85;37.85;101946.16;5061488;28;45436;-81